Details From PAPG - PETERSBURG JAMES A JOHNSON
To PAJN - Juneau Intl
Flight Number -
Tags generated
Created
Modified
Stats Distance 117 nm / 216 km
Max Altitude 7,900 ft / 2,408 m
Waypoints 3
Social Downloads 1
Likes 0
Share

Download

Looking for another format? Having issues loading an existing format? Contact us
Advertisement - Login to hide

Notes

Basic altitude profile: - Ascent Rate: 2500ft/min - Ascent Speed: 250kts - Cruise Altitude: 35000ft - Cruise Speed: 420kts - Descent Rate: 1500ft/min - Descent Speed: 250kts Options: - Use NATs: yes - Use PACOTS: yes - Use low airways: no - Use high airways: yes

Route

PAPG HOODS PAJN

ID Type Via Altitude (ft/m) Position (lat/lon) Dist (leg/tot) Name
O PAPG APT - 0 / 0 56.80165 / -132.94529 - / 0 nm PETERSBURG JAMES A JOHNSON
HOODS FIX - 7,900 / 2,408 57.74293 / -134.68157 79 / 79 nm
O PAJN APT - 0 / 0 58.35496 / -134.57628 36 / 116 nm Juneau Intl

Altitude Profile

Advertisement - Login to hide

PAPG

Details ICAO PAPG (PSG)
Name Petersburg James A. Johnson
Region USA (Alaska)
Timezone America/Juneau (UTC-8.0)
Stats Elevation 113 ft / 34 m (AMSL)
Location 56.801500° -132.946000°
Runways 1
Magnetic Variation 17.914° E

METAR

PAPG 281156Z AUTO 13004KT 10SM OVC080 12/10 A3020 RMK AO2 SLP230 7//// T01170100 10128 20111 50000

Decode

TAF

PAPG 281127Z 2812/2912 VRB04KT P6SM BKN080 FM281800 06007KT P6SM BKN100 AMD LTD TO CLD VIS AND WIND 2812/2815

Decode

Departure Runways

ID Width Length Bearing (true/mag) Surface Threshold Overrun Markings Lighting
05 150 ft / 46 m 6,382 ft / 1,945 m 70.70° / 52.78° ASPHALT 0 ft / 0 m 200 ft / 61 m PREC-APP CENTERLINE EDGE THRESHOLD RAIL REIL-OMNI
23 150 ft / 46 m 6,382 ft / 1,945 m 250.72° / 232.81° ASPHALT 400 ft / 122 m 200 ft / 61 m PREC-APP CENTERLINE EDGE THRESHOLD ODALS REIL-OMNI

PAJN

Details ICAO PAJN (JNU)
Name Juneau Intl
Region USA (Alaska)
Timezone America/Juneau (UTC-8.0)
Stats Elevation 20 ft / 6 m (AMSL)
Location 58.355000° -134.576000°
Runways 1
Magnetic Variation 18.092° E

METAR

PAJN 281153Z 00000KT 10SM BKN039 BKN090 12/10 A3020

Decode

TAF

PAJN 281127Z 2812/2912 VRB05KT P6SM BKN035 FM281800 24008KT P6SM SCT050 BKN100

Decode

Destination Runways

ID Width Length Bearing (true/mag) Surface Threshold Overrun Markings Lighting
08 151 ft / 46 m 8,867 ft / 2,703 m 104.87° / 86.77° ASPHALT 220 ft / 67 m 0 ft / 0 m APP CENTERLINE EDGE THRESHOLD MALSF
26 151 ft / 46 m 8,867 ft / 2,703 m 284.90° / 266.81° ASPHALT 217 ft / 66 m 0 ft / 0 m APP CENTERLINE EDGE THRESHOLD MALS

Approach Navaids

Runway Type Ident Frequency Range Bearing (true/mag) Slope Elevation
08 DME IJDL 109.90 MHz 18 nm / 33 km - - 175 ft / 53 m (AMSL)
08 LOC-LOC IJDL 109.90 MHz 18 nm / 33 km 84.92° / 66.83 ° - 21 ft / 6 m (AMSL)

Popular Alternatives